sensor_id;sensor_type;location;lat;lon;timestamp;temperature;humidity
24217;DHT22;12356;49.386;8.688;2024-01-11T00:01:09;-0.10;6.30
24217;DHT22;12356;49.386;8.688;2024-01-11T00:03:40;-0.10;6.90
24217;DHT22;12356;49.386;8.688;2024-01-11T00:06:11;-0.10;6.90
24217;DHT22;12356;49.386;8.688;2024-01-11T00:08:41;0.00;6.80
24217;DHT22;12356;49.386;8.688;2024-01-11T00:11:12;-0.20;6.50
24217;DHT22;12356;49.386;8.688;2024-01-11T00:13:43;-0.20;6.60
24217;DHT22;12356;49.386;8.688;2024-01-11T00:16:14;-0.10;7.00
24217;DHT22;12356;49.386;8.688;2024-01-11T00:18:44;-0.30;7.70
24217;DHT22;12356;49.386;8.688;2024-01-11T00:21:15;-0.10;6.80
24217;DHT22;12356;49.386;8.688;2024-01-11T00:23:46;-0.20;7.20
24217;DHT22;12356;49.386;8.688;2024-01-11T00:26:16;-0.30;7.70
24217;DHT22;12356;49.386;8.688;2024-01-11T00:28:47;-0.20;7.80
24217;DHT22;12356;49.386;8.688;2024-01-11T00:31:17;-0.30;7.80
24217;DHT22;12356;49.386;8.688;2024-01-11T00:33:48;-0.20;7.90
24217;DHT22;12356;49.386;8.688;2024-01-11T00:36:19;-0.20;7.90
24217;DHT22;12356;49.386;8.688;2024-01-11T00:38:52;-0.30;7.40
24217;DHT22;12356;49.386;8.688;2024-01-11T00:41:24;-0.30;7.70
24217;DHT22;12356;49.386;8.688;2024-01-11T00:43:55;-0.40;8.50
24217;DHT22;12356;49.386;8.688;2024-01-11T00:46:25;-0.30;9.00
24217;DHT22;12356;49.386;8.688;2024-01-11T00:48:56;-0.30;9.20
24217;DHT22;12356;49.386;8.688;2024-01-11T00:51:26;-0.30;8.40
24217;DHT22;12356;49.386;8.688;2024-01-11T00:53:57;-0.40;8.40
24217;DHT22;12356;49.386;8.688;2024-01-11T00:56:27;-0.30;8.50
24217;DHT22;12356;49.386;8.688;2024-01-11T00:58:58;-0.20;8.10
24217;DHT22;12356;49.386;8.688;2024-01-11T01:01:29;-0.20;8.20
24217;DHT22;12356;49.386;8.688;2024-01-11T01:04:00;-0.30;8.00
24217;DHT22;12356;49.386;8.688;2024-01-11T01:06:31;-0.30;7.90
24217;DHT22;12356;49.386;8.688;2024-01-11T01:09:01;-0.30;7.80
24217;DHT22;12356;49.386;8.688;2024-01-11T01:11:32;-0.30;8.30
24217;DHT22;12356;49.386;8.688;2024-01-11T01:14:04;-0.30;8.40
24217;DHT22;12356;49.386;8.688;2024-01-11T01:16:35;-0.40;8.40
24217;DHT22;12356;49.386;8.688;2024-01-11T01:19:05;-0.40;8.40
24217;DHT22;12356;49.386;8.688;2024-01-11T01:21:36;-0.40;8.10
24217;DHT22;12356;49.386;8.688;2024-01-11T01:24:06;-0.40;8.50
24217;DHT22;12356;49.386;8.688;2024-01-11T01:26:37;-0.40;8.80
24217;DHT22;12356;49.386;8.688;2024-01-11T01:29:07;-0.30;9.40
24217;DHT22;12356;49.386;8.688;2024-01-11T01:31:38;-0.40;9.40
24217;DHT22;12356;49.386;8.688;2024-01-11T01:34:09;-0.40;9.30
24217;DHT22;12356;49.386;8.688;2024-01-11T01:36:40;-0.50;9.50
24217;DHT22;12356;49.386;8.688;2024-01-11T01:39:11;-0.40;9.30
24217;DHT22;12356;49.386;8.688;2024-01-11T01:41:41;-0.50;9.60
24217;DHT22;12356;49.386;8.688;2024-01-11T01:44:12;-0.40;9.60
24217;DHT22;12356;49.386;8.688;2024-01-11T01:46:42;-0.30;9.50
24217;DHT22;12356;49.386;8.688;2024-01-11T01:49:13;-0.40;9.10
24217;DHT22;12356;49.386;8.688;2024-01-11T01:51:44;-0.40;9.10
24217;DHT22;12356;49.386;8.688;2024-01-11T01:54:15;-0.50;9.10
24217;DHT22;12356;49.386;8.688;2024-01-11T01:56:46;-0.40;9.40
24217;DHT22;12356;49.386;8.688;2024-01-11T01:59:18;-0.50;9.20
24217;DHT22;12356;49.386;8.688;2024-01-11T02:01:49;-0.40;9.60
24217;DHT22;12356;49.386;8.688;2024-01-11T02:04:20;-0.50;9.30
24217;DHT22;12356;49.386;8.688;2024-01-11T02:06:52;-0.50;9.10
24217;DHT22;12356;49.386;8.688;2024-01-11T02:09:24;-0.50;9.60
24217;DHT22;12356;49.386;8.688;2024-01-11T02:11:55;-0.50;9.20
24217;DHT22;12356;49.386;8.688;2024-01-11T02:14:26;-0.50;9.10
24217;DHT22;12356;49.386;8.688;2024-01-11T02:16:57;-0.50;9.20
24217;DHT22;12356;49.386;8.688;2024-01-11T02:19:27;-0.50;9.80
24217;DHT22;12356;49.386;8.688;2024-01-11T02:22:02;-0.60;10.20
24217;DHT22;12356;49.386;8.688;2024-01-11T02:24:35;-0.50;9.90
24217;DHT22;12356;49.386;8.688;2024-01-11T02:27:05;-0.60;9.60
24217;DHT22;12356;49.386;8.688;2024-01-11T02:29:36;-0.60;9.10
24217;DHT22;12356;49.386;8.688;2024-01-11T02:32:07;-0.60;9.10
24217;DHT22;12356;49.386;8.688;2024-01-11T02:34:38;-0.60;9.10
24217;DHT22;12356;49.386;8.688;2024-01-11T02:37:09;-0.60;9.20
24217;DHT22;12356;49.386;8.688;2024-01-11T02:39:40;-0.60;9.30
24217;DHT22;12356;49.386;8.688;2024-01-11T02:42:11;-0.60;9.10
24217;DHT22;12356;49.386;8.688;2024-01-11T02:44:42;-0.70;9.80
24217;DHT22;12356;49.386;8.688;2024-01-11T02:47:12;-0.70;9.60
24217;DHT22;12356;49.386;8.688;2024-01-11T02:49:43;-0.80;9.80
24217;DHT22;12356;49.386;8.688;2024-01-11T02:52:13;-0.70;9.60
24217;DHT22;12356;49.386;8.688;2024-01-11T02:54:44;-0.70;9.60
24217;DHT22;12356;49.386;8.688;2024-01-11T02:57:14;-0.70;9.80
24217;DHT22;12356;49.386;8.688;2024-01-11T02:59:45;-0.80;9.60
24217;DHT22;12356;49.386;8.688;2024-01-11T03:02:16;-0.80;9.70
24217;DHT22;12356;49.386;8.688;2024-01-11T03:04:46;-0.60;10.00
24217;DHT22;12356;49.386;8.688;2024-01-11T03:07:17;-0.80;10.10
24217;DHT22;12356;49.386;8.688;2024-01-11T03:09:47;-0.80;10.70
24217;DHT22;12356;49.386;8.688;2024-01-11T03:12:18;-0.80;10.70
24217;DHT22;12356;49.386;8.688;2024-01-11T03:14:48;-0.80;10.10
24217;DHT22;12356;49.386;8.688;2024-01-11T03:17:19;-0.80;10.10
24217;DHT22;12356;49.386;8.688;2024-01-11T03:19:50;-0.80;10.30
24217;DHT22;12356;49.386;8.688;2024-01-11T03:22:20;-0.80;10.20
24217;DHT22;12356;49.386;8.688;2024-01-11T03:24:51;-0.80;10.10
24217;DHT22;12356;49.386;8.688;2024-01-11T03:27:22;-0.90;10.40
24217;DHT22;12356;49.386;8.688;2024-01-11T03:29:52;-0.90;10.80
24217;DHT22;12356;49.386;8.688;2024-01-11T03:32:23;-0.90;11.00
24217;DHT22;12356;49.386;8.688;2024-01-11T03:34:54;-0.90;10.70
24217;DHT22;12356;49.386;8.688;2024-01-11T03:37:24;-1.00;11.00
24217;DHT22;12356;49.386;8.688;2024-01-11T03:39:55;-0.90;11.00
24217;DHT22;12356;49.386;8.688;2024-01-11T03:42:26;-1.00;11.00
24217;DHT22;12356;49.386;8.688;2024-01-11T03:44:56;-1.00;11.20
24217;DHT22;12356;49.386;8.688;2024-01-11T03:47:27;-0.90;11.50
24217;DHT22;12356;49.386;8.688;2024-01-11T03:49:57;-1.00;11.70
24217;DHT22;12356;49.386;8.688;2024-01-11T03:52:28;-0.90;11.70
24217;DHT22;12356;49.386;8.688;2024-01-11T03:54:58;-0.90;11.60
24217;DHT22;12356;49.386;8.688;2024-01-11T03:57:29;-0.90;11.70
24217;DHT22;12356;49.386;8.688;2024-01-11T04:00:00;-0.90;12.30
24217;DHT22;12356;49.386;8.688;2024-01-11T04:02:30;-0.80;11.10
24217;DHT22;12356;49.386;8.688;2024-01-11T04:05:01;-0.90;11.30
24217;DHT22;12356;49.386;8.688;2024-01-11T04:07:31;-0.90;11.50
24217;DHT22;12356;49.386;8.688;2024-01-11T04:10:02;-0.80;11.70
24217;DHT22;12356;49.386;8.688;2024-01-11T04:12:33;-0.90;11.00
24217;DHT22;12356;49.386;8.688;2024-01-11T04:15:04;-0.90;11.10
24217;DHT22;12356;49.386;8.688;2024-01-11T04:17:34;-1.00;11.40
24217;DHT22;12356;49.386;8.688;2024-01-11T04:20:06;-0.90;11.20
24217;DHT22;12356;49.386;8.688;2024-01-11T04:22:37;-1.00;11.70
24217;DHT22;12356;49.386;8.688;2024-01-11T04:25:08;-0.90;11.80
24217;DHT22;12356;49.386;8.688;2024-01-11T04:27:38;-1.00;11.10
24217;DHT22;12356;49.386;8.688;2024-01-11T04:30:09;-1.10;12.10
24217;DHT22;12356;49.386;8.688;2024-01-11T04:32:40;-1.10;13.10
24217;DHT22;12356;49.386;8.688;2024-01-11T04:35:10;-1.20;12.80
24217;DHT22;12356;49.386;8.688;2024-01-11T04:37:41;-1.20;13.20
24217;DHT22;12356;49.386;8.688;2024-01-11T04:40:11;-1.20;13.60
24217;DHT22;12356;49.386;8.688;2024-01-11T04:42:42;-1.10;13.30
24217;DHT22;12356;49.386;8.688;2024-01-11T04:45:12;-1.20;12.80
24217;DHT22;12356;49.386;8.688;2024-01-11T04:47:43;-1.10;13.40
24217;DHT22;12356;49.386;8.688;2024-01-11T04:50:14;-1.10;13.20
24217;DHT22;12356;49.386;8.688;2024-01-11T04:52:44;-1.20;12.70
24217;DHT22;12356;49.386;8.688;2024-01-11T04:55:15;-1.10;13.10
24217;DHT22;12356;49.386;8.688;2024-01-11T04:57:45;-1.20;13.40
24217;DHT22;12356;49.386;8.688;2024-01-11T05:00:16;-1.30;13.80
24217;DHT22;12356;49.386;8.688;2024-01-11T05:02:47;-1.20;14.50
24217;DHT22;12356;49.386;8.688;2024-01-11T05:05:17;-1.20;15.00
24217;DHT22;12356;49.386;8.688;2024-01-11T05:07:48;-1.30;15.30
24217;DHT22;12356;49.386;8.688;2024-01-11T05:10:18;-1.20;15.10
24217;DHT22;12356;49.386;8.688;2024-01-11T05:12:49;-1.20;15.10
24217;DHT22;12356;49.386;8.688;2024-01-11T05:15:20;-1.30;14.70
24217;DHT22;12356;49.386;8.688;2024-01-11T05:17:50;-1.30;15.10
24217;DHT22;12356;49.386;8.688;2024-01-11T05:20:21;-1.30;15.10
24217;DHT22;12356;49.386;8.688;2024-01-11T05:22:52;-1.20;15.80
24217;DHT22;12356;49.386;8.688;2024-01-11T05:25:22;-1.20;14.90
24217;DHT22;12356;49.386;8.688;2024-01-11T05:27:53;-1.20;14.70
24217;DHT22;12356;49.386;8.688;2024-01-11T05:30:23;-1.10;14.60
24217;DHT22;12356;49.386;8.688;2024-01-11T05:32:54;-1.20;14.50
24217;DHT22;12356;49.386;8.688;2024-01-11T05:35:25;-1.20;14.80
24217;DHT22;12356;49.386;8.688;2024-01-11T05:37:57;-1.10;14.40
24217;DHT22;12356;49.386;8.688;2024-01-11T05:40:28;-1.10;14.10
24217;DHT22;12356;49.386;8.688;2024-01-11T05:42:59;-1.10;13.80
24217;DHT22;12356;49.386;8.688;2024-01-11T05:45:29;-1.00;13.80
24217;DHT22;12356;49.386;8.688;2024-01-11T05:48:00;-1.20;13.80
24217;DHT22;12356;49.386;8.688;2024-01-11T05:50:31;-1.20;14.20
24217;DHT22;12356;49.386;8.688;2024-01-11T05:53:01;-1.20;13.90
24217;DHT22;12356;49.386;8.688;2024-01-11T05:55:32;-1.20;13.70
24217;DHT22;12356;49.386;8.688;2024-01-11T05:58:02;-1.20;13.60
24217;DHT22;12356;49.386;8.688;2024-01-11T06:00:33;-1.20;13.60
24217;DHT22;12356;49.386;8.688;2024-01-11T06:03:04;-1.20;13.70
24217;DHT22;12356;49.386;8.688;2024-01-11T06:05:35;-1.30;13.50
24217;DHT22;12356;49.386;8.688;2024-01-11T06:08:06;-1.20;13.60
24217;DHT22;12356;49.386;8.688;2024-01-11T06:10:36;-1.20;13.80
24217;DHT22;12356;49.386;8.688;2024-01-11T06:13:07;-1.20;13.20
24217;DHT22;12356;49.386;8.688;2024-01-11T06:15:39;-1.20;13.30
24217;DHT22;12356;49.386;8.688;2024-01-11T06:18:10;-1.20;13.40
24217;DHT22;12356;49.386;8.688;2024-01-11T06:20:41;-1.10;13.10
24217;DHT22;12356;49.386;8.688;2024-01-11T06:23:11;-1.20;13.00
24217;DHT22;12356;49.386;8.688;2024-01-11T06:25:42;-1.40;13.50
24217;DHT22;12356;49.386;8.688;2024-01-11T06:28:12;-1.30;13.90
24217;DHT22;12356;49.386;8.688;2024-01-11T06:30:43;-1.30;14.00
24217;DHT22;12356;49.386;8.688;2024-01-11T06:33:13;-1.30;13.70
24217;DHT22;12356;49.386;8.688;2024-01-11T06:35:44;-1.30;14.00
24217;DHT22;12356;49.386;8.688;2024-01-11T06:38:14;-1.30;14.10
24217;DHT22;12356;49.386;8.688;2024-01-11T06:40:45;-1.30;14.20
24217;DHT22;12356;49.386;8.688;2024-01-11T06:43:16;-1.30;13.80
24217;DHT22;12356;49.386;8.688;2024-01-11T06:45:46;-1.30;14.50
24217;DHT22;12356;49.386;8.688;2024-01-11T06:48:17;-1.30;14.10
24217;DHT22;12356;49.386;8.688;2024-01-11T06:50:48;-1.20;14.20
24217;DHT22;12356;49.386;8.688;2024-01-11T06:53:18;-1.20;14.60
24217;DHT22;12356;49.386;8.688;2024-01-11T06:55:49;-1.20;13.70
24217;DHT22;12356;49.386;8.688;2024-01-11T06:58:22;-1.20;13.90
24217;DHT22;12356;49.386;8.688;2024-01-11T07:00:53;-1.20;14.20
24217;DHT22;12356;49.386;8.688;2024-01-11T07:03:24;-1.10;14.10
24217;DHT22;12356;49.386;8.688;2024-01-11T07:05:55;-1.10;14.10
24217;DHT22;12356;49.386;8.688;2024-01-11T07:08:26;-1.40;13.60
24217;DHT22;12356;49.386;8.688;2024-01-11T07:10:57;-1.20;13.50
24217;DHT22;12356;49.386;8.688;2024-01-11T07:13:31;-1.20;14.20
24217;DHT22;12356;49.386;8.688;2024-01-11T07:16:05;-1.20;14.00
24217;DHT22;12356;49.386;8.688;2024-01-11T07:18:36;-1.30;13.90
24217;DHT22;12356;49.386;8.688;2024-01-11T07:21:06;-1.30;14.40
24217;DHT22;12356;49.386;8.688;2024-01-11T07:23:37;-1.30;14.10
24217;DHT22;12356;49.386;8.688;2024-01-11T07:26:07;-1.30;14.40
24217;DHT22;12356;49.386;8.688;2024-01-11T07:28:38;-1.30;14.40
24217;DHT22;12356;49.386;8.688;2024-01-11T07:31:10;-1.30;14.60
24217;DHT22;12356;49.386;8.688;2024-01-11T07:33:41;-1.30;14.40
24217;DHT22;12356;49.386;8.688;2024-01-11T07:36:12;-1.30;15.40
24217;DHT22;12356;49.386;8.688;2024-01-11T07:38:42;-1.10;14.10
24217;DHT22;12356;49.386;8.688;2024-01-11T07:41:13;-1.20;13.90
24217;DHT22;12356;49.386;8.688;2024-01-11T07:43:44;-1.40;13.70
24217;DHT22;12356;49.386;8.688;2024-01-11T07:46:14;-1.30;14.10
24217;DHT22;12356;49.386;8.688;2024-01-11T07:48:45;-1.30;14.20
24217;DHT22;12356;49.386;8.688;2024-01-11T07:51:16;-1.30;13.80
24217;DHT22;12356;49.386;8.688;2024-01-11T07:53:46;-1.30;14.00
24217;DHT22;12356;49.386;8.688;2024-01-11T07:56:17;-1.30;13.90
24217;DHT22;12356;49.386;8.688;2024-01-11T07:58:48;-1.20;14.00
24217;DHT22;12356;49.386;8.688;2024-01-11T08:01:18;-1.20;14.40
24217;DHT22;12356;49.386;8.688;2024-01-11T08:03:50;-1.30;15.10
24217;DHT22;12356;49.386;8.688;2024-01-11T08:06:22;-1.30;14.50
24217;DHT22;12356;49.386;8.688;2024-01-11T08:08:53;-1.30;14.30
24217;DHT22;12356;49.386;8.688;2024-01-11T08:11:23;-1.20;14.70
24217;DHT22;12356;49.386;8.688;2024-01-11T08:13:54;-1.10;13.40
24217;DHT22;12356;49.386;8.688;2024-01-11T08:16:25;-1.00;13.50
24217;DHT22;12356;49.386;8.688;2024-01-11T08:18:55;-1.10;13.60
24217;DHT22;12356;49.386;8.688;2024-01-11T08:21:26;-1.10;13.20
24217;DHT22;12356;49.386;8.688;2024-01-11T08:23:57;-1.00;13.00
24217;DHT22;12356;49.386;8.688;2024-01-11T08:26:27;-1.00;13.00
24217;DHT22;12356;49.386;8.688;2024-01-11T08:28:58;-1.00;13.00
24217;DHT22;12356;49.386;8.688;2024-01-11T08:31:28;-1.00;12.90
24217;DHT22;12356;49.386;8.688;2024-01-11T08:33:59;-1.10;13.00
24217;DHT22;12356;49.386;8.688;2024-01-11T08:36:33;-1.00;13.40
24217;DHT22;12356;49.386;8.688;2024-01-11T08:39:05;-1.00;13.10
24217;DHT22;12356;49.386;8.688;2024-01-11T08:41:36;-1.00;13.10
24217;DHT22;12356;49.386;8.688;2024-01-11T08:44:08;-1.00;12.90
24217;DHT22;12356;49.386;8.688;2024-01-11T08:46:38;-0.90;13.00
24217;DHT22;12356;49.386;8.688;2024-01-11T08:49:09;-0.90;12.80
24217;DHT22;12356;49.386;8.688;2024-01-11T08:51:40;-0.80;12.90
24217;DHT22;12356;49.386;8.688;2024-01-11T08:54:10;-0.80;12.30
24217;DHT22;12356;49.386;8.688;2024-01-11T08:56:42;-0.80;11.80
24217;DHT22;12356;49.386;8.688;2024-01-11T08:59:13;-1.00;12.10
24217;DHT22;12356;49.386;8.688;2024-01-11T09:01:43;-1.00;12.90
24217;DHT22;12356;49.386;8.688;2024-01-11T09:04:14;-0.90;13.00
24217;DHT22;12356;49.386;8.688;2024-01-11T09:06:45;-0.90;12.70
24217;DHT22;12356;49.386;8.688;2024-01-11T09:09:15;-0.90;13.20
24217;DHT22;12356;49.386;8.688;2024-01-11T09:11:47;-0.80;13.00
24217;DHT22;12356;49.386;8.688;2024-01-11T09:14:17;-0.70;13.00
24217;DHT22;12356;49.386;8.688;2024-01-11T09:16:48;-0.70;12.90
24217;DHT22;12356;49.386;8.688;2024-01-11T09:19:20;-0.80;12.60
24217;DHT22;12356;49.386;8.688;2024-01-11T09:21:50;-0.80;13.10
24217;DHT22;12356;49.386;8.688;2024-01-11T09:24:21;-0.70;13.40
24217;DHT22;12356;49.386;8.688;2024-01-11T09:26:52;-0.60;13.10
24217;DHT22;12356;49.386;8.688;2024-01-11T09:29:22;-0.60;12.80
24217;DHT22;12356;49.386;8.688;2024-01-11T09:31:53;-0.60;12.90
24217;DHT22;12356;49.386;8.688;2024-01-11T09:34:24;-0.60;12.10
24217;DHT22;12356;49.386;8.688;2024-01-11T09:36:54;-0.50;12.60
24217;DHT22;12356;49.386;8.688;2024-01-11T09:39:29;-0.50;13.00
24217;DHT22;12356;49.386;8.688;2024-01-11T09:42:08;-0.50;13.10
24217;DHT22;12356;49.386;8.688;2024-01-11T09:44:42;-0.50;12.40
24217;DHT22;12356;49.386;8.688;2024-01-11T09:47:15;-0.40;12.40
24217;DHT22;12356;49.386;8.688;2024-01-11T09:49:49;-0.10;11.90
24217;DHT22;12356;49.386;8.688;2024-01-11T09:52:25;-0.10;11.60
24217;DHT22;12356;49.386;8.688;2024-01-11T09:54:56;-0.20;11.60
24217;DHT22;12356;49.386;8.688;2024-01-11T09:57:31;-0.10;11.60
24217;DHT22;12356;49.386;8.688;2024-01-11T10:00:04;0.00;11.30
24217;DHT22;12356;49.386;8.688;2024-01-11T10:02:38;0.00;10.50
24217;DHT22;12356;49.386;8.688;2024-01-11T10:05:09;0.10;9.60
24217;DHT22;12356;49.386;8.688;2024-01-11T10:07:40;0.10;9.30
24217;DHT22;12356;49.386;8.688;2024-01-11T10:10:11;0.10;8.50
24217;DHT22;12356;49.386;8.688;2024-01-11T10:12:43;0.10;8.70
24217;DHT22;12356;49.386;8.688;2024-01-11T10:15:13;0.10;8.60
24217;DHT22;12356;49.386;8.688;2024-01-11T10:17:44;0.00;9.00
24217;DHT22;12356;49.386;8.688;2024-01-11T10:20:16;0.00;9.50
24217;DHT22;12356;49.386;8.688;2024-01-11T10:22:47;0.00;8.80
24217;DHT22;12356;49.386;8.688;2024-01-11T10:25:18;0.10;9.00
24217;DHT22;12356;49.386;8.688;2024-01-11T10:27:49;0.20;9.10
24217;DHT22;12356;49.386;8.688;2024-01-11T10:30:19;0.40;9.30
24217;DHT22;12356;49.386;8.688;2024-01-11T10:32:52;0.40;8.60
24217;DHT22;12356;49.386;8.688;2024-01-11T10:35:23;0.50;9.60
24217;DHT22;12356;49.386;8.688;2024-01-11T10:37:55;0.40;9.00
24217;DHT22;12356;49.386;8.688;2024-01-11T10:40:28;0.50;9.80
24217;DHT22;12356;49.386;8.688;2024-01-11T10:43:00;0.50;8.70
24217;DHT22;12356;49.386;8.688;2024-01-11T10:45:32;0.60;8.40
24217;DHT22;12356;49.386;8.688;2024-01-11T10:48:13;0.70;8.80
24217;DHT22;12356;49.386;8.688;2024-01-11T10:50:45;0.70;7.90
24217;DHT22;12356;49.386;8.688;2024-01-11T10:53:44;0.60;7.70
24217;DHT22;12356;49.386;8.688;2024-01-11T10:56:16;0.60;7.40
24217;DHT22;12356;49.386;8.688;2024-01-11T10:58:47;0.60;8.30
24217;DHT22;12356;49.386;8.688;2024-01-11T11:01:19;0.70;7.70
24217;DHT22;12356;49.386;8.688;2024-01-11T11:03:52;0.50;7.10
24217;DHT22;12356;49.386;8.688;2024-01-11T11:06:27;0.60;7.30
24217;DHT22;12356;49.386;8.688;2024-01-11T11:08:59;0.70;7.40
24217;DHT22;12356;49.386;8.688;2024-01-11T11:11:33;0.70;6.50
24217;DHT22;12356;49.386;8.688;2024-01-11T11:14:05;0.70;6.90
24217;DHT22;12356;49.386;8.688;2024-01-11T11:16:35;0.80;7.40
24217;DHT22;12356;49.386;8.688;2024-01-11T11:19:06;0.90;7.60
24217;DHT22;12356;49.386;8.688;2024-01-11T11:21:44;1.10;6.50
24217;DHT22;12356;49.386;8.688;2024-01-11T11:24:16;1.20;5.70
24217;DHT22;12356;49.386;8.688;2024-01-11T11:26:49;1.00;5.50
24217;DHT22;12356;49.386;8.688;2024-01-11T11:29:20;1.10;5.60
24217;DHT22;12356;49.386;8.688;2024-01-11T11:31:51;1.10;6.10
24217;DHT22;12356;49.386;8.688;2024-01-11T11:34:43;1.20;4.70
24217;DHT22;12356;49.386;8.688;2024-01-11T11:37:23;1.40;4.20
24217;DHT22;12356;49.386;8.688;2024-01-11T11:39:54;1.40;4.20
24217;DHT22;12356;49.386;8.688;2024-01-11T11:42:25;1.50;4.90
24217;DHT22;12356;49.386;8.688;2024-01-11T11:44:56;1.50;5.30
24217;DHT22;12356;49.386;8.688;2024-01-11T11:47:35;1.60;5.50
24217;DHT22;12356;49.386;8.688;2024-01-11T11:50:11;1.60;3.40
24217;DHT22;12356;49.386;8.688;2024-01-11T11:52:42;1.50;2.60
24217;DHT22;12356;49.386;8.688;2024-01-11T11:55:13;1.60;2.00
24217;DHT22;12356;49.386;8.688;2024-01-11T11:57:44;1.70;2.80
24217;DHT22;12356;49.386;8.688;2024-01-11T12:00:16;1.70;2.40
24217;DHT22;12356;49.386;8.688;2024-01-11T12:02:50;1.80;3.20
24217;DHT22;12356;49.386;8.688;2024-01-11T12:05:23;1.80;1.90
24217;DHT22;12356;49.386;8.688;2024-01-11T12:07:54;1.80;1.00
24217;DHT22;12356;49.386;8.688;2024-01-11T12:10:24;1.90;1.40
24217;DHT22;12356;49.386;8.688;2024-01-11T12:12:55;2.10;1.20
24217;DHT22;12356;49.386;8.688;2024-01-11T12:15:27;2.00;1.20
24217;DHT22;12356;49.386;8.688;2024-01-11T12:17:58;2.00;1.00
24217;DHT22;12356;49.386;8.688;2024-01-11T12:20:32;2.00;1.00
24217;DHT22;12356;49.386;8.688;2024-01-11T12:23:03;2.00;1.00
24217;DHT22;12356;49.386;8.688;2024-01-11T12:25:34;1.90;1.00
24217;DHT22;12356;49.386;8.688;2024-01-11T12:28:06;2.00;1.00
24217;DHT22;12356;49.386;8.688;2024-01-11T12:30:36;1.90;1.00
24217;DHT22;12356;49.386;8.688;2024-01-11T12:33:08;1.90;1.00
24217;DHT22;12356;49.386;8.688;2024-01-11T12:35:39;2.10;1.00
24217;DHT22;12356;49.386;8.688;2024-01-11T12:38:10;2.20;1.00
24217;DHT22;12356;49.386;8.688;2024-01-11T12:40:41;2.10;1.00
24217;DHT22;12356;49.386;8.688;2024-01-11T12:43:12;2.20;1.00
24217;DHT22;12356;49.386;8.688;2024-01-11T12:45:43;2.10;1.00
24217;DHT22;12356;49.386;8.688;2024-01-11T12:48:13;2.00;1.00
24217;DHT22;12356;49.386;8.688;2024-01-11T12:50:46;2.00;1.00
24217;DHT22;12356;49.386;8.688;2024-01-11T12:53:17;2.10;1.00
24217;DHT22;12356;49.386;8.688;2024-01-11T12:56:01;2.00;1.00
24217;DHT22;12356;49.386;8.688;2024-01-11T12:58:32;2.10;1.00
24217;DHT22;12356;49.386;8.688;2024-01-11T13:01:03;2.20;1.00
24217;DHT22;12356;49.386;8.688;2024-01-11T13:03:38;2.20;1.00
24217;DHT22;12356;49.386;8.688;2024-01-11T13:06:09;2.20;1.00
24217;DHT22;12356;49.386;8.688;2024-01-11T13:08:41;2.30;1.00
24217;DHT22;12356;49.386;8.688;2024-01-11T13:11:12;2.30;1.00
24217;DHT22;12356;49.386;8.688;2024-01-11T13:13:45;2.30;1.00
24217;DHT22;12356;49.386;8.688;2024-01-11T13:16:17;2.50;1.00
24217;DHT22;12356;49.386;8.688;2024-01-11T13:18:49;2.50;1.00
24217;DHT22;12356;49.386;8.688;2024-01-11T13:21:19;2.40;1.00
24217;DHT22;12356;49.386;8.688;2024-01-11T13:23:50;2.40;1.00
24217;DHT22;12356;49.386;8.688;2024-01-11T13:26:21;2.40;1.00
24217;DHT22;12356;49.386;8.688;2024-01-11T13:28:51;2.30;1.00
24217;DHT22;12356;49.386;8.688;2024-01-11T13:31:22;2.30;1.00
24217;DHT22;12356;49.386;8.688;2024-01-11T13:33:53;2.30;1.00
24217;DHT22;12356;49.386;8.688;2024-01-11T13:36:25;2.30;1.00
24217;DHT22;12356;49.386;8.688;2024-01-11T13:38:56;2.30;1.00
24217;DHT22;12356;49.386;8.688;2024-01-11T13:41:26;2.50;1.00
24217;DHT22;12356;49.386;8.688;2024-01-11T13:43:57;2.40;1.00
24217;DHT22;12356;49.386;8.688;2024-01-11T13:46:27;2.40;1.00
24217;DHT22;12356;49.386;8.688;2024-01-11T13:48:58;2.30;1.00
24217;DHT22;12356;49.386;8.688;2024-01-11T13:51:29;2.20;1.00
24217;DHT22;12356;49.386;8.688;2024-01-11T13:54:02;2.30;1.00
24217;DHT22;12356;49.386;8.688;2024-01-11T13:56:33;2.30;1.00
24217;DHT22;12356;49.386;8.688;2024-01-11T13:59:03;2.30;1.00
24217;DHT22;12356;49.386;8.688;2024-01-11T14:01:34;2.20;1.00
24217;DHT22;12356;49.386;8.688;2024-01-11T14:04:05;2.20;1.00
24217;DHT22;12356;49.386;8.688;2024-01-11T14:06:35;2.10;1.00
24217;DHT22;12356;49.386;8.688;2024-01-11T14:09:06;2.30;1.00
24217;DHT22;12356;49.386;8.688;2024-01-11T14:11:39;2.30;1.00
24217;DHT22;12356;49.386;8.688;2024-01-11T14:14:10;2.30;1.00
24217;DHT22;12356;49.386;8.688;2024-01-11T14:16:40;2.40;1.00
24217;DHT22;12356;49.386;8.688;2024-01-11T14:19:11;2.50;1.00
24217;DHT22;12356;49.386;8.688;2024-01-11T14:21:42;2.60;1.00
24217;DHT22;12356;49.386;8.688;2024-01-11T14:24:12;2.60;1.00
24217;DHT22;12356;49.386;8.688;2024-01-11T14:26:43;2.60;1.00
24217;DHT22;12356;49.386;8.688;2024-01-11T14:29:14;2.70;1.00
24217;DHT22;12356;49.386;8.688;2024-01-11T14:31:45;2.70;1.00
24217;DHT22;12356;49.386;8.688;2024-01-11T14:34:15;2.70;1.00
24217;DHT22;12356;49.386;8.688;2024-01-11T14:36:46;2.70;1.00
24217;DHT22;12356;49.386;8.688;2024-01-11T14:39:17;2.60;1.00
24217;DHT22;12356;49.386;8.688;2024-01-11T14:41:47;2.60;1.00
24217;DHT22;12356;49.386;8.688;2024-01-11T14:44:18;2.60;1.00
24217;DHT22;12356;49.386;8.688;2024-01-11T14:46:48;2.60;1.00
24217;DHT22;12356;49.386;8.688;2024-01-11T14:49:19;2.50;1.00
24217;DHT22;12356;49.386;8.688;2024-01-11T14:51:50;2.50;1.00
24217;DHT22;12356;49.386;8.688;2024-01-11T14:54:20;2.50;1.00
24217;DHT22;12356;49.386;8.688;2024-01-11T14:56:51;2.50;1.00
24217;DHT22;12356;49.386;8.688;2024-01-11T14:59:22;2.60;1.00
24217;DHT22;12356;49.386;8.688;2024-01-11T15:01:53;2.70;1.00
24217;DHT22;12356;49.386;8.688;2024-01-11T15:04:23;2.60;1.00
24217;DHT22;12356;49.386;8.688;2024-01-11T15:06:54;2.70;1.00
24217;DHT22;12356;49.386;8.688;2024-01-11T15:09:24;2.70;1.00
24217;DHT22;12356;49.386;8.688;2024-01-11T15:11:56;2.60;1.00
24217;DHT22;12356;49.386;8.688;2024-01-11T15:14:26;2.60;1.00
24217;DHT22;12356;49.386;8.688;2024-01-11T15:16:57;2.60;1.00
24217;DHT22;12356;49.386;8.688;2024-01-11T15:19:28;2.70;1.00
24217;DHT22;12356;49.386;8.688;2024-01-11T15:21:59;2.70;1.00
24217;DHT22;12356;49.386;8.688;2024-01-11T15:24:29;2.70;1.00
24217;DHT22;12356;49.386;8.688;2024-01-11T15:27:00;2.70;1.00
24217;DHT22;12356;49.386;8.688;2024-01-11T15:29:32;2.70;1.00
24217;DHT22;12356;49.386;8.688;2024-01-11T15:32:03;2.60;1.00
24217;DHT22;12356;49.386;8.688;2024-01-11T15:34:34;2.60;1.00
24217;DHT22;12356;49.386;8.688;2024-01-11T15:37:05;2.60;1.00
24217;DHT22;12356;49.386;8.688;2024-01-11T15:39:36;2.60;1.00
24217;DHT22;12356;49.386;8.688;2024-01-11T15:42:07;2.60;1.00
24217;DHT22;12356;49.386;8.688;2024-01-11T15:44:37;2.50;1.00
24217;DHT22;12356;49.386;8.688;2024-01-11T15:47:09;2.50;1.00
24217;DHT22;12356;49.386;8.688;2024-01-11T15:49:40;2.50;1.00
24217;DHT22;12356;49.386;8.688;2024-01-11T15:52:11;2.40;1.00
24217;DHT22;12356;49.386;8.688;2024-01-11T15:54:41;2.30;1.00
24217;DHT22;12356;49.386;8.688;2024-01-11T15:57:12;2.40;1.00
24217;DHT22;12356;49.386;8.688;2024-01-11T15:59:43;2.40;1.00
24217;DHT22;12356;49.386;8.688;2024-01-11T16:02:13;2.30;1.00
24217;DHT22;12356;49.386;8.688;2024-01-11T16:04:44;2.30;1.00
24217;DHT22;12356;49.386;8.688;2024-01-11T16:07:15;2.30;1.00
24217;DHT22;12356;49.386;8.688;2024-01-11T16:09:46;2.30;1.00